createdAt,value
2018-05-07T00:01:04.622Z,96.10
2018-05-07T00:03:33.178Z,96.40
2018-05-07T00:06:01.074Z,96.90
2018-05-07T00:08:29.446Z,96.90
2018-05-07T00:10:57.854Z,98.10
2018-05-07T00:13:25.904Z,98.00
2018-05-07T00:15:54.539Z,98.00
2018-05-07T00:18:23.285Z,98.10
2018-05-07T00:20:52.277Z,98.50
2018-05-07T00:23:21.237Z,98.50
2018-05-07T00:25:49.749Z,98.90
2018-05-07T00:28:18.392Z,99.10
2018-05-07T00:30:46.116Z,99.00
2018-05-07T00:33:19.449Z,98.80
2018-05-07T00:35:48.520Z,99.20
2018-05-07T00:38:17.258Z,99.10
2018-05-07T00:40:45.662Z,99.60
2018-05-07T00:43:14.871Z,99.90
2018-05-07T00:45:43.271Z,99.80
2018-05-07T00:48:11.463Z,99.90
2018-05-07T00:50:39.722Z,99.90
2018-05-07T00:53:07.798Z,99.90
2018-05-07T00:55:36.632Z,99.90
2018-05-07T00:58:05.970Z,99.90
2018-05-07T01:06:13.903Z,99.90
2018-05-07T01:08:47.563Z,99.90
2018-05-07T01:11:16.189Z,99.90
2018-05-07T01:16:37.918Z,99.90
2018-05-07T01:19:06.011Z,99.90
2018-05-07T01:21:34.736Z,99.90
2018-05-07T01:24:02.888Z,99.90
2018-05-07T01:26:31.348Z,99.90
2018-05-07T01:28:59.601Z,99.90
2018-05-07T01:31:29.057Z,99.90
2018-05-07T01:33:58.413Z,99.90
2018-05-07T01:36:26.671Z,99.90
2018-05-07T01:38:55.539Z,99.90
2018-05-07T01:41:23.634Z,99.90
2018-05-07T01:43:53.293Z,99.90
2018-05-07T01:46:21.594Z,99.90
2018-05-07T01:48:50.722Z,99.90
2018-05-07T01:51:18.921Z,99.90
2018-05-07T01:53:47.159Z,99.90
2018-05-07T01:56:15.573Z,99.90
2018-05-07T01:58:44.131Z,99.90
2018-05-07T02:01:12.281Z,99.90
2018-05-07T02:03:40.805Z,99.90
2018-05-07T02:06:08.926Z,99.90
2018-05-07T02:08:37.301Z,99.90
2018-05-07T02:11:14.267Z,99.90
2018-05-07T02:13:42.719Z,99.90
2018-05-07T02:16:11.168Z,99.90
2018-05-07T02:18:39.303Z,99.90
2018-05-07T02:21:07.872Z,99.90
2018-05-07T02:23:37.180Z,99.90
2018-05-07T02:26:05.995Z,99.90
2018-05-07T02:28:34.360Z,99.90
2018-05-07T02:31:03.769Z,99.90
2018-05-07T02:33:32.021Z,99.90
2018-05-07T02:36:00.483Z,99.90
2018-05-07T02:38:30.841Z,99.90
2018-05-07T02:40:59.983Z,99.90
2018-05-07T02:43:28.315Z,99.90
2018-05-07T02:45:57.432Z,99.90
2018-05-07T02:48:27.418Z,99.90
2018-05-07T02:50:56.620Z,99.90
2018-05-07T02:53:25.002Z,99.90
2018-05-07T02:55:53.806Z,99.90
2018-05-07T02:58:22.361Z,99.90
2018-05-07T03:00:53.509Z,99.90
2018-05-07T03:03:27.063Z,99.90
2018-05-07T03:05:57.913Z,99.90
2018-05-07T03:08:26.646Z,99.90
2018-05-07T03:10:55.128Z,99.90
2018-05-07T03:13:23.874Z,99.90
2018-05-07T03:15:52.651Z,99.90
2018-05-07T03:18:21.821Z,99.90
2018-05-07T03:20:50.861Z,99.90
2018-05-07T03:25:53.817Z,99.90
2018-05-07T03:28:22.591Z,99.90
2018-05-07T03:30:51.450Z,99.90
2018-05-07T03:33:21.443Z,99.90
2018-05-07T03:35:51.691Z,99.90
2018-05-07T03:38:20.808Z,99.90
2018-05-07T03:40:50.430Z,99.90
2018-05-07T03:43:23.693Z,99.90
2018-05-07T03:45:53.106Z,99.90
2018-05-07T03:48:22.480Z,99.90
2018-05-07T03:50:51.318Z,99.90
2018-05-07T03:53:19.760Z,99.90
2018-05-07T03:55:49.125Z,99.90
2018-05-07T03:58:18.914Z,99.90
2018-05-07T04:00:47.996Z,99.90
2018-05-07T04:03:16.886Z,99.90
2018-05-07T04:05:45.738Z,99.90
2018-05-07T04:08:14.899Z,99.90
2018-05-07T04:10:44.478Z,99.90
2018-05-07T04:13:13.197Z,99.90
2018-05-07T04:15:41.750Z,99.90
2018-05-07T04:18:22.607Z,99.90
2018-05-07T04:21:03.588Z,99.90
2018-05-07T04:23:44.235Z,99.90
2018-05-07T04:29:05.341Z,99.90
2018-05-07T04:31:34.963Z,99.90
2018-05-07T04:34:03.759Z,99.90
2018-05-07T04:42:18.435Z,99.90
2018-05-07T04:47:44.192Z,99.90
2018-05-07T04:50:13.567Z,99.90
2018-05-07T04:52:43.696Z,99.90
2018-05-07T05:00:52.733Z,99.90
2018-05-07T05:20:32.923Z,99.90
2018-05-07T05:23:01.663Z,99.90
2018-05-07T05:25:31.704Z,99.90
2018-05-07T05:28:01.867Z,99.90
2018-05-07T05:30:31.558Z,99.90
2018-05-07T05:33:01.398Z,99.90
2018-05-07T05:35:30.465Z,99.90
2018-05-07T05:37:59.375Z,99.90
2018-05-07T05:40:28.456Z,99.90
2018-05-07T05:42:57.172Z,99.90
2018-05-07T05:45:29.767Z,99.90
2018-05-07T05:48:00.003Z,99.90
2018-05-07T05:50:29.255Z,99.90
2018-05-07T05:55:50.668Z,99.90
2018-05-07T06:06:51.110Z,99.90
2018-05-07T06:09:20.508Z,99.90
2018-05-07T06:11:52.059Z,99.80
2018-05-07T06:14:22.108Z,99.80
2018-05-07T06:16:50.853Z,99.20
2018-05-07T06:19:21.465Z,98.60
2018-05-07T06:27:38.045Z,96.00
2018-05-07T06:30:07.054Z,95.90
2018-05-07T06:32:37.564Z,95.00
2018-05-07T06:35:06.161Z,94.90
2018-05-07T06:40:21.141Z,93.70
2018-05-07T06:51:18.482Z,91.10
2018-05-07T06:53:47.763Z,90.40
2018-05-07T06:59:10.227Z,88.70
2018-05-07T07:01:39.105Z,86.50
2018-05-07T07:06:55.509Z,85.10
2018-05-07T07:09:24.825Z,83.20
2018-05-07T07:11:53.416Z,81.00
2018-05-07T07:17:14.345Z,77.90
2018-05-07T07:25:22.073Z,73.80
2018-05-07T07:27:49.931Z,73.80
2018-05-07T07:30:18.241Z,72.60
2018-05-07T07:32:45.662Z,70.60
2018-05-07T07:35:13.967Z,69.80
2018-05-07T07:37:41.451Z,68.60
2018-05-07T07:40:08.655Z,68.80
2018-05-07T07:42:36.960Z,65.90
2018-05-07T07:45:08.641Z,65.90
2018-05-07T07:47:36.861Z,65.50
2018-05-07T07:50:06.309Z,64.30
2018-05-07T07:52:35.570Z,64.20
2018-05-07T07:57:52.256Z,60.70
2018-05-07T08:00:23.668Z,60.60
2018-05-07T08:03:00.784Z,60.10
2018-05-07T08:05:29.289Z,59.60
2018-05-07T08:07:56.973Z,59.30
2018-05-07T08:10:24.516Z,58.70
2018-05-07T08:12:55.501Z,58.20
2018-05-07T08:15:24.734Z,57.80
2018-05-07T08:17:53.352Z,57.20
2018-05-07T08:20:21.112Z,56.70
2018-05-07T08:22:48.683Z,56.00
2018-05-07T08:25:16.963Z,54.60
2018-05-07T08:27:44.607Z,54.60
2018-05-07T08:30:12.602Z,54.20
2018-05-07T08:32:40.882Z,54.20
2018-05-07T08:35:09.258Z,52.90
2018-05-07T08:37:55.402Z,52.10
2018-05-07T08:40:24.621Z,52.00
2018-05-07T08:42:52.188Z,51.60
2018-05-07T08:45:19.803Z,50.80
2018-05-07T08:47:48.469Z,49.70
2018-05-07T08:50:15.995Z,49.80
2018-05-07T08:52:44.374Z,49.40
2018-05-07T08:55:12.913Z,49.30
2018-05-07T08:57:40.486Z,49.50
2018-05-07T09:00:08.022Z,50.10
2018-05-07T09:02:35.566Z,49.60
2018-05-07T09:05:07.100Z,49.50
2018-05-07T09:07:35.829Z,50.10
2018-05-07T09:10:03.404Z,49.70
2018-05-07T09:12:30.959Z,49.50
2018-05-07T09:14:58.511Z,49.00
2018-05-07T09:17:26.111Z,49.40
2018-05-07T09:19:53.651Z,49.20
2018-05-07T09:22:21.248Z,49.00
2018-05-07T09:24:50.487Z,50.20
2018-05-07T09:27:18.441Z,50.20
2018-05-07T09:29:46.844Z,49.10
2018-05-07T09:32:14.387Z,49.10
2018-05-07T09:34:42.684Z,49.00
2018-05-07T09:37:10.229Z,49.00
2018-05-07T09:39:38.583Z,49.10
2018-05-07T09:42:06.193Z,49.00
2018-05-07T09:44:33.738Z,47.70
2018-05-07T09:47:02.188Z,47.90
2018-05-07T09:49:29.749Z,47.70
2018-05-07T09:51:57.320Z,47.00
2018-05-07T09:54:24.894Z,46.70
2018-05-07T09:56:54.988Z,48.30
2018-05-07T09:59:22.548Z,48.10
2018-05-07T10:01:50.104Z,47.70
2018-05-07T10:04:17.650Z,47.60
2018-05-07T10:06:45.216Z,47.70
2018-05-07T10:09:12.754Z,47.10
2018-05-07T10:11:40.297Z,47.60
2018-05-07T10:14:07.874Z,47.50
2018-05-07T10:16:35.462Z,47.70
2018-05-07T10:19:03.056Z,47.40
2018-05-07T10:21:31.365Z,47.10
2018-05-07T10:23:58.917Z,46.90
2018-05-07T10:26:26.467Z,46.70
2018-05-07T10:28:54.854Z,47.20
2018-05-07T10:31:23.166Z,47.40
2018-05-07T10:33:50.725Z,47.40
2018-05-07T10:36:18.252Z,47.50
2018-05-07T10:38:46.927Z,47.40
2018-05-07T10:41:15.243Z,48.00
2018-05-07T10:43:42.772Z,47.90
2018-05-07T10:46:11.088Z,47.50
2018-05-07T10:48:38.644Z,47.50
2018-05-07T10:51:06.183Z,46.60
2018-05-07T10:53:47.970Z,46.50
2018-05-07T10:56:30.392Z,47.80
2018-05-07T10:59:07.675Z,47.70
2018-05-07T11:01:35.281Z,47.10
2018-05-07T11:04:04.216Z,47.80
2018-05-07T11:06:32.150Z,47.60
2018-05-07T11:08:59.735Z,47.50
2018-05-07T11:11:28.416Z,46.40
2018-05-07T11:13:56.272Z,46.30
2018-05-07T11:16:24.461Z,47.00
2018-05-07T11:18:55.066Z,47.30
2018-05-07T11:21:24.880Z,48.00
2018-05-07T11:23:53.646Z,48.60
2018-05-07T11:26:21.608Z,46.70
2018-05-07T11:28:49.164Z,47.40
2018-05-07T11:31:16.720Z,48.40
2018-05-07T11:33:45.486Z,47.10
2018-05-07T11:36:14.439Z,47.30
2018-05-07T11:38:41.983Z,47.20
2018-05-07T11:41:10.209Z,46.90
2018-05-07T11:43:40.897Z,46.50
2018-05-07T11:46:35.372Z,47.80
2018-05-07T11:49:10.104Z,47.70
2018-05-07T11:54:39.598Z,47.80
2018-05-07T11:57:09.062Z,46.70
2018-05-07T11:59:40.984Z,46.40
2018-05-07T12:02:08.659Z,46.20
2018-05-07T12:04:36.963Z,47.20
2018-05-07T12:07:04.499Z,47.20
2018-05-07T12:09:32.811Z,46.80
2018-05-07T12:12:00.391Z,46.80
2018-05-07T12:14:27.939Z,46.60
2018-05-07T12:16:55.504Z,46.50
2018-05-07T12:19:23.052Z,45.70
2018-05-07T12:21:51.425Z,45.80
2018-05-07T12:24:20.960Z,46.60
2018-05-07T12:26:48.513Z,45.70
2018-05-07T12:29:16.038Z,45.00
2018-05-07T12:31:43.720Z,45.50
2018-05-07T12:34:15.240Z,46.20
2018-05-07T12:36:43.687Z,45.50
2018-05-07T12:39:11.279Z,45.40
2018-05-07T12:41:39.720Z,44.90
2018-05-07T12:44:07.340Z,44.90
2018-05-07T12:46:35.051Z,45.10
2018-05-07T12:49:02.807Z,45.10
2018-05-07T12:51:30.604Z,44.30
2018-05-07T12:53:59.043Z,44.50
2018-05-07T12:56:26.693Z,44.50
2018-05-07T12:58:55.524Z,44.90
2018-05-07T13:01:25.268Z,44.00
2018-05-07T13:03:53.178Z,43.90
2018-05-07T13:06:20.911Z,44.40
2018-05-07T13:08:49.530Z,44.10
2018-05-07T13:14:19.885Z,43.30
2018-05-07T13:16:55.825Z,43.20
2018-05-07T13:19:24.607Z,43.20
2018-05-07T13:21:52.465Z,43.60
2018-05-07T13:24:20.968Z,44.00
2018-05-07T13:26:48.879Z,44.80
2018-05-07T13:29:16.852Z,44.80
2018-05-07T13:31:44.618Z,44.80
2018-05-07T13:34:12.330Z,44.20
2018-05-07T13:36:40.613Z,44.00
2018-05-07T13:39:08.622Z,43.90
2018-05-07T13:41:37.392Z,43.40
2018-05-07T13:44:05.384Z,43.50
2018-05-07T13:46:32.965Z,43.30
2018-05-07T13:49:00.500Z,44.00
2018-05-07T13:51:28.030Z,43.70
2018-05-07T13:53:55.560Z,43.60
2018-05-07T13:56:23.889Z,43.50
2018-05-07T13:58:51.440Z,43.50
2018-05-07T14:01:19.749Z,43.40
2018-05-07T14:03:47.295Z,43.30
2018-05-07T14:06:15.072Z,43.00
2018-05-07T14:08:42.704Z,43.50
2018-05-07T14:11:15.099Z,44.00
2018-05-07T14:13:43.407Z,43.20
2018-05-07T14:16:10.965Z,43.20
2018-05-07T14:18:38.512Z,43.30
2018-05-07T14:21:06.076Z,42.70
2018-05-07T14:23:36.480Z,42.90
2018-05-07T14:26:04.525Z,43.10
2018-05-07T14:28:32.701Z,43.60
2018-05-07T14:31:00.946Z,43.00
2018-05-07T14:33:29.699Z,42.70
2018-05-07T14:35:58.418Z,43.40
2018-05-07T14:38:26.698Z,43.30
2018-05-07T14:40:55.684Z,42.70
2018-05-07T14:43:24.425Z,42.70
2018-05-07T14:45:53.148Z,42.90
2018-05-07T14:48:22.382Z,42.80
2018-05-07T14:50:51.349Z,42.30
2018-05-07T14:53:21.344Z,42.30
2018-05-07T14:55:49.401Z,42.50
2018-05-07T14:58:17.701Z,42.60
2018-05-07T15:00:45.977Z,42.30
2018-05-07T15:03:15.083Z,42.50
2018-05-07T15:05:43.097Z,42.10
2018-05-07T15:08:11.787Z,41.70
2018-05-07T15:10:40.200Z,41.70
2018-05-07T15:13:08.180Z,41.90
2018-05-07T15:15:36.280Z,41.80
2018-05-07T15:18:04.095Z,41.80
2018-05-07T15:20:33.125Z,41.70
2018-05-07T15:23:01.204Z,41.60
2018-05-07T15:25:29.001Z,41.30
2018-05-07T15:27:58.122Z,41.50
2018-05-07T15:30:26.373Z,41.50
2018-05-07T15:32:54.190Z,41.50
2018-05-07T15:35:22.934Z,41.60
2018-05-07T15:37:51.485Z,41.80
2018-05-07T15:40:19.355Z,41.80
2018-05-07T15:42:48.011Z,42.10
2018-05-07T15:45:15.845Z,41.80
2018-05-07T15:47:44.654Z,41.90
2018-05-07T15:50:12.448Z,41.90
2018-05-07T15:52:41.449Z,42.20
2018-05-07T15:55:09.484Z,42.40
2018-05-07T15:57:37.289Z,42.70
2018-05-07T16:00:06.205Z,43.10
2018-05-07T16:02:34.400Z,43.80
2018-05-07T16:05:04.478Z,43.90
2018-05-07T16:07:32.617Z,44.10
2018-05-07T16:10:00.891Z,44.30
2018-05-07T16:12:29.501Z,44.60
2018-05-07T16:14:57.639Z,44.70
2018-05-07T16:17:26.460Z,44.80
2018-05-07T16:19:55.924Z,44.40
2018-05-07T16:22:25.796Z,44.70
2018-05-07T16:24:54.540Z,44.90
2018-05-07T16:27:24.777Z,45.20
2018-05-07T16:29:56.434Z,45.30
2018-05-07T16:32:27.065Z,45.20
2018-05-07T16:34:56.931Z,45.40
2018-05-07T16:37:29.934Z,45.50
2018-05-07T16:42:57.396Z,45.30
2018-05-07T16:45:29.238Z,45.20
2018-05-07T16:48:00.849Z,45.00
2018-05-07T16:50:35.077Z,45.00
2018-05-07T16:53:05.606Z,44.80
2018-05-07T16:55:34.403Z,44.80
2018-05-07T16:58:03.400Z,44.80
2018-05-07T17:00:33.797Z,45.00
2018-05-07T17:03:03.732Z,45.00
2018-05-07T17:05:33.532Z,45.00
2018-05-07T17:08:09.898Z,44.90
2018-05-07T17:16:24.254Z,45.10
2018-05-07T17:18:53.333Z,45.10
2018-05-07T17:21:21.175Z,45.10
2018-05-07T17:23:59.471Z,45.10
2018-05-07T17:26:32.185Z,45.10
2018-05-07T17:35:46.840Z,44.90
2018-05-07T17:38:15.529Z,44.50
2018-05-07T17:40:43.394Z,44.50
2018-05-07T17:43:12.187Z,44.50
2018-05-07T17:46:04.852Z,44.50
2018-05-07T17:48:44.969Z,44.50
2018-05-07T17:51:13.066Z,44.60
2018-05-07T17:53:42.616Z,44.50
2018-05-07T17:56:10.632Z,45.00
2018-05-07T17:58:38.343Z,44.80
2018-05-07T18:01:06.040Z,45.00
2018-05-07T18:03:34.783Z,45.10
2018-05-07T18:06:02.427Z,45.60
2018-05-07T18:08:30.138Z,45.50
2018-05-07T18:10:57.922Z,45.60
2018-05-07T18:13:25.414Z,45.80
2018-05-07T18:15:52.995Z,46.20
2018-05-07T18:18:21.368Z,46.30
2018-05-07T18:20:48.946Z,46.30
2018-05-07T18:23:17.718Z,47.00
2018-05-07T18:25:45.464Z,46.80
2018-05-07T18:28:15.440Z,47.20
2018-05-07T18:30:43.967Z,47.30
2018-05-07T18:33:13.576Z,47.80
2018-05-07T18:35:41.277Z,47.50
2018-05-07T18:38:08.964Z,48.00
2018-05-07T18:40:36.659Z,48.20
2018-05-07T18:43:04.345Z,48.20
2018-05-07T18:45:31.997Z,48.40
2018-05-07T18:47:59.261Z,48.50
2018-05-07T18:50:28.607Z,48.80
2018-05-07T18:52:56.266Z,49.20
2018-05-07T18:55:23.932Z,49.10
2018-05-07T19:04:04.312Z,50.60
2018-05-07T19:06:32.038Z,50.90
2018-05-07T19:09:00.716Z,50.90
2018-05-07T19:11:30.134Z,51.20
2018-05-07T19:13:57.935Z,51.30
2018-05-07T19:16:31.089Z,51.60
2018-05-07T19:18:59.840Z,51.70
2018-05-07T19:21:27.471Z,51.90
2018-05-07T19:23:56.628Z,52.00
2018-05-07T19:26:25.332Z,52.20
2018-05-07T19:28:54.130Z,52.30
2018-05-07T19:31:22.037Z,52.40
2018-05-07T19:33:50.936Z,52.40
2018-05-07T19:36:20.053Z,52.20
2018-05-07T19:38:48.098Z,52.70
2018-05-07T19:41:15.872Z,52.60
2018-05-07T19:43:59.055Z,52.90
2018-05-07T19:46:26.746Z,53.20
2018-05-07T19:48:56.438Z,52.90
2018-05-07T19:51:24.020Z,53.80
2018-05-07T19:56:49.221Z,53.70
2018-05-07T19:59:17.278Z,54.40
2018-05-07T20:01:45.416Z,54.50
2018-05-07T20:04:17.170Z,54.20
2018-05-07T20:06:44.446Z,54.80
2018-05-07T20:09:12.146Z,55.20
2018-05-07T20:11:39.981Z,55.00
2018-05-07T20:14:09.247Z,54.70
2018-05-07T20:16:38.611Z,54.70
2018-05-07T20:19:07.885Z,54.90
2018-05-07T20:21:36.139Z,55.10
2018-05-07T20:24:03.961Z,55.20
2018-05-07T20:26:31.738Z,55.60
2018-05-07T20:28:59.488Z,55.40
2018-05-07T20:31:28.264Z,55.60
2018-05-07T20:33:56.750Z,55.80
2018-05-07T20:36:25.293Z,56.00
2018-05-07T20:38:53.719Z,56.70
2018-05-07T20:41:22.603Z,56.80
2018-05-07T20:43:53.133Z,57.00
2018-05-07T20:46:21.665Z,57.50
2018-05-07T20:48:54.941Z,57.40
2018-05-07T20:51:23.449Z,57.70
2018-05-07T20:53:51.456Z,57.60
2018-05-07T20:56:19.176Z,57.90
2018-05-07T20:58:46.972Z,57.40
2018-05-07T21:01:16.654Z,57.60
2018-05-07T21:03:46.663Z,57.80
2018-05-07T21:06:14.342Z,57.90
2018-05-07T21:08:42.245Z,58.10
2018-05-07T21:11:10.867Z,58.70
2018-05-07T21:13:40.336Z,58.50
2018-05-07T21:16:08.157Z,58.90
2018-05-07T21:18:36.015Z,58.80
2018-05-07T21:21:08.641Z,59.10
2018-05-07T21:23:36.547Z,59.50
2018-05-07T21:26:04.426Z,59.60
2018-05-07T21:28:33.201Z,60.80
2018-05-07T21:31:01.919Z,59.90
2018-05-07T21:33:30.815Z,59.80
2018-05-07T21:35:58.967Z,59.90
2018-05-07T21:38:27.609Z,59.90
2018-05-07T21:40:55.488Z,60.00
2018-05-07T21:43:24.481Z,60.10
2018-05-07T21:45:52.410Z,60.30
2018-05-07T21:48:21.031Z,60.50
2018-05-07T21:50:48.868Z,60.50
2018-05-07T21:53:18.003Z,60.50
2018-05-07T21:55:45.853Z,60.60
2018-05-07T21:58:13.717Z,60.60
2018-05-07T22:00:41.712Z,60.70
2018-05-07T22:03:09.413Z,61.00
2018-05-07T22:05:37.207Z,61.50
2018-05-07T22:08:05.903Z,62.20
2018-05-07T22:10:33.604Z,61.70
2018-05-07T22:13:01.363Z,62.10
2018-05-07T22:15:29.384Z,62.30
2018-05-07T22:17:56.997Z,62.20
2018-05-07T22:20:24.716Z,62.40
2018-05-07T22:22:52.475Z,62.60
2018-05-07T22:25:20.247Z,63.30
2018-05-07T22:27:48.071Z,63.40
2018-05-07T22:30:17.301Z,63.70
2018-05-07T22:32:45.146Z,64.30
2018-05-07T22:35:14.852Z,65.50
2018-05-07T22:37:43.232Z,65.50
2018-05-07T22:40:11.584Z,65.40
2018-05-07T22:42:40.004Z,66.20
2018-05-07T22:45:07.758Z,66.90
2018-05-07T22:47:36.571Z,67.70
2018-05-07T22:50:05.833Z,68.70
2018-05-07T22:52:33.561Z,69.70
2018-05-07T22:55:06.886Z,71.40
2018-05-07T22:57:34.768Z,71.30
2018-05-07T23:00:02.492Z,74.50
2018-05-07T23:02:31.153Z,75.10
2018-05-07T23:04:59.039Z,75.10
2018-05-07T23:07:26.657Z,75.70
2018-05-07T23:09:54.349Z,76.20
2018-05-07T23:12:22.134Z,77.40
2018-05-07T23:14:50.909Z,78.80
2018-05-07T23:17:18.824Z,80.10
2018-05-07T23:19:46.570Z,81.20
2018-05-07T23:22:15.202Z,84.40
2018-05-07T23:24:43.857Z,84.10
2018-05-07T23:27:11.957Z,85.50
2018-05-07T23:29:39.851Z,87.40
2018-05-07T23:32:07.658Z,89.60
2018-05-07T23:34:35.329Z,90.50
2018-05-07T23:37:03.170Z,91.00
2018-05-07T23:39:32.035Z,91.50
2018-05-07T23:41:59.926Z,92.40
2018-05-07T23:44:28.348Z,93.20
2018-05-07T23:46:56.109Z,93.00
2018-05-07T23:49:24.071Z,93.10
2018-05-07T23:51:51.976Z,93.50
2018-05-07T23:54:19.829Z,93.80
2018-05-07T23:56:47.813Z,94.20
2018-05-07T23:59:15.590Z,94.50
